sensor_id;sensor_type;location;lat;lon;timestamp;temperature;humidity
59977;DHT22;45837;51.076;3.578;2022-08-04T00:02:12;25.70;57.70
59977;DHT22;45837;51.076;3.578;2022-08-04T00:04:48;25.60;57.70
59977;DHT22;45837;51.076;3.578;2022-08-04T00:07:25;25.60;57.70
59977;DHT22;45837;51.076;3.578;2022-08-04T00:09:58;25.70;57.70
59977;DHT22;45837;51.076;3.578;2022-08-04T00:12:27;25.70;57.60
59977;DHT22;45837;51.076;3.578;2022-08-04T00:14:57;25.70;57.50
59977;DHT22;45837;51.076;3.578;2022-08-04T00:17:29;25.60;57.90
59977;DHT22;45837;51.076;3.578;2022-08-04T00:19:59;25.70;57.50
59977;DHT22;45837;51.076;3.578;2022-08-04T00:22:28;25.70;57.50
59977;DHT22;45837;51.076;3.578;2022-08-04T00:24:55;25.60;57.50
59977;DHT22;45837;51.076;3.578;2022-08-04T00:27:21;25.60;57.30
59977;DHT22;45837;51.076;3.578;2022-08-04T00:29:47;25.70;57.40
59977;DHT22;45837;51.076;3.578;2022-08-04T00:32:13;25.70;57.30
59977;DHT22;45837;51.076;3.578;2022-08-04T00:34:40;25.70;57.30
59977;DHT22;45837;51.076;3.578;2022-08-04T00:37:06;25.70;57.30
59977;DHT22;45837;51.076;3.578;2022-08-04T00:39:33;25.70;57.30
59977;DHT22;45837;51.076;3.578;2022-08-04T00:44:56;25.70;57.30
59977;DHT22;45837;51.076;3.578;2022-08-04T00:47:29;25.60;57.20
59977;DHT22;45837;51.076;3.578;2022-08-04T00:50:23;25.60;57.10
59977;DHT22;45837;51.076;3.578;2022-08-04T00:53:16;25.70;57.70
59977;DHT22;45837;51.076;3.578;2022-08-04T00:58:46;25.60;57.00
59977;DHT22;45837;51.076;3.578;2022-08-04T01:07:21;25.60;57.00
59977;DHT22;45837;51.076;3.578;2022-08-04T01:10:03;25.60;56.90
59977;DHT22;45837;51.076;3.578;2022-08-04T01:13:28;25.60;57.00
59977;DHT22;45837;51.076;3.578;2022-08-04T01:15:55;25.60;56.90
59977;DHT22;45837;51.076;3.578;2022-08-04T01:19:00;25.60;56.90
59977;DHT22;45837;51.076;3.578;2022-08-04T01:24:11;25.60;56.60
59977;DHT22;45837;51.076;3.578;2022-08-04T01:29:15;25.60;56.50
59977;DHT22;45837;51.076;3.578;2022-08-04T01:31:46;25.60;56.50
59977;DHT22;45837;51.076;3.578;2022-08-04T01:34:15;25.60;56.50
59977;DHT22;45837;51.076;3.578;2022-08-04T01:36:45;25.60;56.30
59977;DHT22;45837;51.076;3.578;2022-08-04T01:39:13;25.60;56.20
59977;DHT22;45837;51.076;3.578;2022-08-04T01:41:59;25.60;56.20
59977;DHT22;45837;51.076;3.578;2022-08-04T01:44:30;25.60;56.10
59977;DHT22;45837;51.076;3.578;2022-08-04T01:46:56;25.60;56.00
59977;DHT22;45837;51.076;3.578;2022-08-04T01:49:23;25.50;56.00
59977;DHT22;45837;51.076;3.578;2022-08-04T01:51:53;25.60;56.10
59977;DHT22;45837;51.076;3.578;2022-08-04T01:54:21;25.60;55.90
59977;DHT22;45837;51.076;3.578;2022-08-04T01:56:49;25.60;56.00
59977;DHT22;45837;51.076;3.578;2022-08-04T01:59:18;25.60;55.90
59977;DHT22;45837;51.076;3.578;2022-08-04T02:01:44;25.60;55.90
59977;DHT22;45837;51.076;3.578;2022-08-04T02:04:19;25.60;55.80
59977;DHT22;45837;51.076;3.578;2022-08-04T02:07:13;25.60;56.40
59977;DHT22;45837;51.076;3.578;2022-08-04T02:15:24;25.60;55.60
59977;DHT22;45837;51.076;3.578;2022-08-04T02:20:37;25.50;55.70
59977;DHT22;45837;51.076;3.578;2022-08-04T02:23:08;25.50;55.70
59977;DHT22;45837;51.076;3.578;2022-08-04T02:26:15;25.50;55.80
59977;DHT22;45837;51.076;3.578;2022-08-04T02:29:08;25.40;55.70
59977;DHT22;45837;51.076;3.578;2022-08-04T02:31:52;25.40;55.80
59977;DHT22;45837;51.076;3.578;2022-08-04T02:34:29;25.40;55.70
59977;DHT22;45837;51.076;3.578;2022-08-04T02:36:58;25.40;55.60
59977;DHT22;45837;51.076;3.578;2022-08-04T02:39:25;25.50;55.60
59977;DHT22;45837;51.076;3.578;2022-08-04T02:41:54;25.50;55.60
59977;DHT22;45837;51.076;3.578;2022-08-04T02:44:22;25.40;55.70
59977;DHT22;45837;51.076;3.578;2022-08-04T02:46:52;25.40;55.70
59977;DHT22;45837;51.076;3.578;2022-08-04T02:49:20;25.40;55.70
59977;DHT22;45837;51.076;3.578;2022-08-04T02:51:49;25.40;55.80
59977;DHT22;45837;51.076;3.578;2022-08-04T02:54:17;25.40;55.80
59977;DHT22;45837;51.076;3.578;2022-08-04T02:56:45;25.40;55.90
59977;DHT22;45837;51.076;3.578;2022-08-04T02:59:13;25.40;55.90
59977;DHT22;45837;51.076;3.578;2022-08-04T03:01:40;25.40;55.90
59977;DHT22;45837;51.076;3.578;2022-08-04T03:04:25;25.40;55.90
59977;DHT22;45837;51.076;3.578;2022-08-04T03:21:59;25.30;56.90
59977;DHT22;45837;51.076;3.578;2022-08-04T03:30:17;25.30;56.50
59977;DHT22;45837;51.076;3.578;2022-08-04T03:38:58;25.30;56.70
59977;DHT22;45837;51.076;3.578;2022-08-04T03:41:26;25.30;56.70
59977;DHT22;45837;51.076;3.578;2022-08-04T04:00:19;25.00;57.40
59977;DHT22;45837;51.076;3.578;2022-08-04T04:05:36;24.90;57.60
59977;DHT22;45837;51.076;3.578;2022-08-04T04:17:03;24.80;58.20
59977;DHT22;45837;51.076;3.578;2022-08-04T04:19:36;24.80;58.40
59977;DHT22;45837;51.076;3.578;2022-08-04T04:22:24;24.70;58.70
59977;DHT22;45837;51.076;3.578;2022-08-04T04:40:04;24.60;59.90
59977;DHT22;45837;51.076;3.578;2022-08-04T04:51:17;24.70;60.20
59977;DHT22;45837;51.076;3.578;2022-08-04T04:59:19;24.70;61.60
59977;DHT22;45837;51.076;3.578;2022-08-04T05:10:17;24.70;64.00
59977;DHT22;45837;51.076;3.578;2022-08-04T05:12:51;24.60;63.30
59977;DHT22;45837;51.076;3.578;2022-08-04T05:15:18;24.60;63.60
59977;DHT22;45837;51.076;3.578;2022-08-04T05:17:52;24.60;63.70
59977;DHT22;45837;51.076;3.578;2022-08-04T05:20:41;24.60;64.20
59977;DHT22;45837;51.076;3.578;2022-08-04T05:23:13;24.60;63.80
59977;DHT22;45837;51.076;3.578;2022-08-04T05:25:43;24.60;64.20
59977;DHT22;45837;51.076;3.578;2022-08-04T05:28:21;24.60;64.40
59977;DHT22;45837;51.076;3.578;2022-08-04T05:31:18;24.60;64.60
59977;DHT22;45837;51.076;3.578;2022-08-04T05:36:21;24.60;65.00
59977;DHT22;45837;51.076;3.578;2022-08-04T05:38:53;24.60;65.00
59977;DHT22;45837;51.076;3.578;2022-08-04T05:41:20;24.70;65.50
59977;DHT22;45837;51.076;3.578;2022-08-04T05:43:48;24.80;65.10
59977;DHT22;45837;51.076;3.578;2022-08-04T05:46:15;24.80;65.00
59977;DHT22;45837;51.076;3.578;2022-08-04T05:48:44;24.80;65.20
59977;DHT22;45837;51.076;3.578;2022-08-04T05:51:10;24.80;65.00
59977;DHT22;45837;51.076;3.578;2022-08-04T05:53:38;24.80;64.90
59977;DHT22;45837;51.076;3.578;2022-08-04T05:56:08;24.80;65.00
59977;DHT22;45837;51.076;3.578;2022-08-04T05:58:34;24.90;64.80
59977;DHT22;45837;51.076;3.578;2022-08-04T06:01:02;24.90;64.80
59977;DHT22;45837;51.076;3.578;2022-08-04T06:03:30;25.00;64.90
59977;DHT22;45837;51.076;3.578;2022-08-04T06:05:58;25.00;64.60
59977;DHT22;45837;51.076;3.578;2022-08-04T06:08:24;25.00;64.40
59977;DHT22;45837;51.076;3.578;2022-08-04T06:10:52;25.00;64.50
59977;DHT22;45837;51.076;3.578;2022-08-04T06:13:32;25.00;64.40
59977;DHT22;45837;51.076;3.578;2022-08-04T06:16:01;25.00;64.40
59977;DHT22;45837;51.076;3.578;2022-08-04T06:18:28;25.00;64.50
59977;DHT22;45837;51.076;3.578;2022-08-04T06:20:57;25.10;64.30
59977;DHT22;45837;51.076;3.578;2022-08-04T06:23:27;25.10;64.10
59977;DHT22;45837;51.076;3.578;2022-08-04T06:25:57;25.10;64.10
59977;DHT22;45837;51.076;3.578;2022-08-04T06:28:26;25.10;64.00
59977;DHT22;45837;51.076;3.578;2022-08-04T06:30:54;25.20;64.00
59977;DHT22;45837;51.076;3.578;2022-08-04T06:33:20;25.10;64.00
59977;DHT22;45837;51.076;3.578;2022-08-04T06:36:00;25.10;64.00
59977;DHT22;45837;51.076;3.578;2022-08-04T06:38:28;25.20;63.90
59977;DHT22;45837;51.076;3.578;2022-08-04T06:40:55;25.20;63.70
59977;DHT22;45837;51.076;3.578;2022-08-04T06:43:26;25.20;63.70
59977;DHT22;45837;51.076;3.578;2022-08-04T06:45:54;25.20;63.40
59977;DHT22;45837;51.076;3.578;2022-08-04T06:48:20;25.30;63.40
59977;DHT22;45837;51.076;3.578;2022-08-04T06:50:48;25.30;63.40
59977;DHT22;45837;51.076;3.578;2022-08-04T06:53:15;25.20;63.40
59977;DHT22;45837;51.076;3.578;2022-08-04T06:55:42;25.30;63.40
59977;DHT22;45837;51.076;3.578;2022-08-04T06:58:10;25.30;63.40
59977;DHT22;45837;51.076;3.578;2022-08-04T07:00:39;25.30;63.40
59977;DHT22;45837;51.076;3.578;2022-08-04T07:03:05;25.30;63.30
59977;DHT22;45837;51.076;3.578;2022-08-04T07:05:33;25.30;62.80
59977;DHT22;45837;51.076;3.578;2022-08-04T07:07:59;25.40;62.70
59977;DHT22;45837;51.076;3.578;2022-08-04T07:10:29;25.40;63.00
59977;DHT22;45837;51.076;3.578;2022-08-04T07:12:59;25.40;63.00
59977;DHT22;45837;51.076;3.578;2022-08-04T07:15:26;25.30;63.10
59977;DHT22;45837;51.076;3.578;2022-08-04T07:17:54;25.20;62.80
59977;DHT22;45837;51.076;3.578;2022-08-04T07:20:24;25.40;62.70
59977;DHT22;45837;51.076;3.578;2022-08-04T07:22:51;25.40;62.90
59977;DHT22;45837;51.076;3.578;2022-08-04T07:25:18;25.40;62.80
59977;DHT22;45837;51.076;3.578;2022-08-04T07:27:44;25.40;62.70
59977;DHT22;45837;51.076;3.578;2022-08-04T07:30:11;25.30;62.70
59977;DHT22;45837;51.076;3.578;2022-08-04T07:32:37;25.40;62.70
59977;DHT22;45837;51.076;3.578;2022-08-04T07:35:06;25.30;62.60
59977;DHT22;45837;51.076;3.578;2022-08-04T07:37:33;25.40;62.50
59977;DHT22;45837;51.076;3.578;2022-08-04T07:40:00;25.40;62.50
59977;DHT22;45837;51.076;3.578;2022-08-04T07:42:26;25.40;62.40
59977;DHT22;45837;51.076;3.578;2022-08-04T07:44:52;25.40;62.40
59977;DHT22;45837;51.076;3.578;2022-08-04T07:47:18;25.40;62.50
59977;DHT22;45837;51.076;3.578;2022-08-04T07:49:44;25.40;62.30
59977;DHT22;45837;51.076;3.578;2022-08-04T07:52:11;25.40;62.20
59977;DHT22;45837;51.076;3.578;2022-08-04T07:54:38;25.40;62.30
59977;DHT22;45837;51.076;3.578;2022-08-04T07:57:04;25.40;62.20
59977;DHT22;45837;51.076;3.578;2022-08-04T07:59:31;25.40;62.10
59977;DHT22;45837;51.076;3.578;2022-08-04T08:02:01;25.40;62.20
59977;DHT22;45837;51.076;3.578;2022-08-04T08:04:27;25.40;62.20
59977;DHT22;45837;51.076;3.578;2022-08-04T08:06:54;25.40;62.00
59977;DHT22;45837;51.076;3.578;2022-08-04T08:09:21;25.50;61.90
59977;DHT22;45837;51.076;3.578;2022-08-04T08:11:51;25.50;61.70
59977;DHT22;45837;51.076;3.578;2022-08-04T08:14:18;25.50;61.60
59977;DHT22;45837;51.076;3.578;2022-08-04T08:16:45;25.40;61.50
59977;DHT22;45837;51.076;3.578;2022-08-04T08:19:12;25.40;61.50
59977;DHT22;45837;51.076;3.578;2022-08-04T08:21:39;25.40;61.60
59977;DHT22;45837;51.076;3.578;2022-08-04T08:24:05;25.40;62.00
59977;DHT22;45837;51.076;3.578;2022-08-04T08:26:32;25.50;61.80
59977;DHT22;45837;51.076;3.578;2022-08-04T08:28:59;25.50;61.80
59977;DHT22;45837;51.076;3.578;2022-08-04T08:31:25;25.40;61.90
59977;DHT22;45837;51.076;3.578;2022-08-04T08:33:51;25.40;62.00
59977;DHT22;45837;51.076;3.578;2022-08-04T08:36:44;25.40;61.70
59977;DHT22;45837;51.076;3.578;2022-08-04T08:39:25;25.50;61.40
59977;DHT22;45837;51.076;3.578;2022-08-04T08:58:31;25.40;62.40
59977;DHT22;45837;51.076;3.578;2022-08-04T09:01:24;25.40;61.60
59977;DHT22;45837;51.076;3.578;2022-08-04T09:12:21;25.40;61.10
59977;DHT22;45837;51.076;3.578;2022-08-04T09:18:01;25.40;61.10
59977;DHT22;45837;51.076;3.578;2022-08-04T09:20:38;25.50;60.70
59977;DHT22;45837;51.076;3.578;2022-08-04T09:34:37;25.60;60.90
59977;DHT22;45837;51.076;3.578;2022-08-04T09:37:16;25.60;60.70
59977;DHT22;45837;51.076;3.578;2022-08-04T09:40:05;25.70;60.70
59977;DHT22;45837;51.076;3.578;2022-08-04T09:46:05;25.70;60.50
59977;DHT22;45837;51.076;3.578;2022-08-04T09:48:34;25.80;60.70
59977;DHT22;45837;51.076;3.578;2022-08-04T09:51:13;25.70;60.90
59977;DHT22;45837;51.076;3.578;2022-08-04T09:53:50;25.80;60.40
59977;DHT22;45837;51.076;3.578;2022-08-04T09:56:40;25.80;60.90
59977;DHT22;45837;51.076;3.578;2022-08-04T09:59:21;25.80;60.60
59977;DHT22;45837;51.076;3.578;2022-08-04T10:01:53;25.80;60.70
59977;DHT22;45837;51.076;3.578;2022-08-04T10:04:21;25.80;60.50
59977;DHT22;45837;51.076;3.578;2022-08-04T10:15:35;25.80;60.50
59977;DHT22;45837;51.076;3.578;2022-08-04T10:21:00;25.90;60.80
59977;DHT22;45837;51.076;3.578;2022-08-04T10:23:35;25.90;60.80
59977;DHT22;45837;51.076;3.578;2022-08-04T10:29:05;25.90;60.50
59977;DHT22;45837;51.076;3.578;2022-08-04T10:31:59;25.90;60.00
59977;DHT22;45837;51.076;3.578;2022-08-04T10:34:28;25.90;60.00
59977;DHT22;45837;51.076;3.578;2022-08-04T10:40:02;26.00;60.30
59977;DHT22;45837;51.076;3.578;2022-08-04T10:42:57;26.00;61.20
59977;DHT22;45837;51.076;3.578;2022-08-04T10:45:37;25.90;60.60
59977;DHT22;45837;51.076;3.578;2022-08-04T10:50:55;25.80;59.90
59977;DHT22;45837;51.076;3.578;2022-08-04T10:53:24;26.00;59.60
59977;DHT22;45837;51.076;3.578;2022-08-04T10:56:01;26.00;59.30
59977;DHT22;45837;51.076;3.578;2022-08-04T10:58:34;26.00;59.30
59977;DHT22;45837;51.076;3.578;2022-08-04T11:01:04;26.00;59.40
59977;DHT22;45837;51.076;3.578;2022-08-04T11:03:57;26.10;59.30
59977;DHT22;45837;51.076;3.578;2022-08-04T11:06:25;26.10;59.20
59977;DHT22;45837;51.076;3.578;2022-08-04T11:08:54;26.00;59.30
59977;DHT22;45837;51.076;3.578;2022-08-04T11:11:36;26.00;59.10
59977;DHT22;45837;51.076;3.578;2022-08-04T11:14:16;26.00;59.10
59977;DHT22;45837;51.076;3.578;2022-08-04T11:21:59;26.10;59.20
59977;DHT22;45837;51.076;3.578;2022-08-04T11:27:00;26.00;59.10
59977;DHT22;45837;51.076;3.578;2022-08-04T11:29:39;25.80;58.90
59977;DHT22;45837;51.076;3.578;2022-08-04T11:32:12;26.00;58.80
59977;DHT22;45837;51.076;3.578;2022-08-04T11:34:47;26.00;58.40
59977;DHT22;45837;51.076;3.578;2022-08-04T11:37:33;26.00;58.60
59977;DHT22;45837;51.076;3.578;2022-08-04T11:42:52;25.90;57.70
59977;DHT22;45837;51.076;3.578;2022-08-04T11:45:30;26.00;57.80
59977;DHT22;45837;51.076;3.578;2022-08-04T11:48:16;26.00;58.20
59977;DHT22;45837;51.076;3.578;2022-08-04T11:50:46;26.30;58.70
59977;DHT22;45837;51.076;3.578;2022-08-04T11:53:15;26.00;58.70
59977;DHT22;45837;51.076;3.578;2022-08-04T11:55:45;26.00;58.70
59977;DHT22;45837;51.076;3.578;2022-08-04T11:58:14;26.00;58.30
59977;DHT22;45837;51.076;3.578;2022-08-04T12:01:01;26.00;58.20
59977;DHT22;45837;51.076;3.578;2022-08-04T12:11:39;26.20;57.70
59977;DHT22;45837;51.076;3.578;2022-08-04T12:16:57;26.20;57.50
59977;DHT22;45837;51.076;3.578;2022-08-04T12:22:13;26.20;57.60
59977;DHT22;45837;51.076;3.578;2022-08-04T12:24:45;26.10;57.40
59977;DHT22;45837;51.076;3.578;2022-08-04T12:27:33;26.20;57.50
59977;DHT22;45837;51.076;3.578;2022-08-04T12:30:01;26.20;57.50
59977;DHT22;45837;51.076;3.578;2022-08-04T12:32:42;26.10;57.30
59977;DHT22;45837;51.076;3.578;2022-08-04T12:35:22;26.20;57.40
59977;DHT22;45837;51.076;3.578;2022-08-04T12:37:59;26.20;57.40
59977;DHT22;45837;51.076;3.578;2022-08-04T12:40:37;26.40;57.40
59977;DHT22;45837;51.076;3.578;2022-08-04T12:43:21;26.20;57.30
59977;DHT22;45837;51.076;3.578;2022-08-04T12:45:57;26.20;57.10
59977;DHT22;45837;51.076;3.578;2022-08-04T12:48:25;26.20;57.20
59977;DHT22;45837;51.076;3.578;2022-08-04T12:50:54;26.20;57.00
59977;DHT22;45837;51.076;3.578;2022-08-04T12:53:25;26.20;57.10
59977;DHT22;45837;51.076;3.578;2022-08-04T12:55:52;26.20;56.90
59977;DHT22;45837;51.076;3.578;2022-08-04T12:58:25;26.20;57.20
59977;DHT22;45837;51.076;3.578;2022-08-04T13:00:56;26.20;56.90
59977;DHT22;45837;51.076;3.578;2022-08-04T13:03:28;26.20;57.10
59977;DHT22;45837;51.076;3.578;2022-08-04T13:05:55;26.20;56.90
59977;DHT22;45837;51.076;3.578;2022-08-04T13:08:22;26.20;57.10
59977;DHT22;45837;51.076;3.578;2022-08-04T13:10:52;26.20;57.10
59977;DHT22;45837;51.076;3.578;2022-08-04T13:13:24;26.20;57.20
59977;DHT22;45837;51.076;3.578;2022-08-04T13:16:03;26.20;57.30
59977;DHT22;45837;51.076;3.578;2022-08-04T13:18:32;26.30;57.40
59977;DHT22;45837;51.076;3.578;2022-08-04T13:21:14;26.20;57.40
59977;DHT22;45837;51.076;3.578;2022-08-04T13:23:42;26.30;57.30
59977;DHT22;45837;51.076;3.578;2022-08-04T13:26:12;26.20;57.30
59977;DHT22;45837;51.076;3.578;2022-08-04T13:28:44;26.00;57.20
59977;DHT22;45837;51.076;3.578;2022-08-04T13:31:14;26.30;57.30
59977;DHT22;45837;51.076;3.578;2022-08-04T13:33:44;26.30;57.40
59977;DHT22;45837;51.076;3.578;2022-08-04T13:36:11;26.30;57.60
59977;DHT22;45837;51.076;3.578;2022-08-04T13:38:48;26.30;57.70
59977;DHT22;45837;51.076;3.578;2022-08-04T13:41:16;26.40;57.60
59977;DHT22;45837;51.076;3.578;2022-08-04T13:43:47;26.30;57.40
59977;DHT22;45837;51.076;3.578;2022-08-04T13:46:20;26.30;57.50
59977;DHT22;45837;51.076;3.578;2022-08-04T13:48:47;26.40;57.60
59977;DHT22;45837;51.076;3.578;2022-08-04T13:51:17;26.40;58.00
59977;DHT22;45837;51.076;3.578;2022-08-04T13:53:43;26.40;58.00
59977;DHT22;45837;51.076;3.578;2022-08-04T13:56:11;26.40;58.80
59977;DHT22;45837;51.076;3.578;2022-08-04T13:58:44;26.40;58.20
59977;DHT22;45837;51.076;3.578;2022-08-04T14:01:23;26.50;58.30
59977;DHT22;45837;51.076;3.578;2022-08-04T14:04:11;26.50;58.50
59977;DHT22;45837;51.076;3.578;2022-08-04T14:06:50;26.40;58.20
59977;DHT22;45837;51.076;3.578;2022-08-04T14:09:20;26.50;58.40
59977;DHT22;45837;51.076;3.578;2022-08-04T14:11:54;26.40;58.20
59977;DHT22;45837;51.076;3.578;2022-08-04T14:14:23;26.50;58.20
59977;DHT22;45837;51.076;3.578;2022-08-04T14:17:10;26.50;57.90
59977;DHT22;45837;51.076;3.578;2022-08-04T14:19:58;26.60;57.60
59977;DHT22;45837;51.076;3.578;2022-08-04T14:25:10;26.50;57.80
59977;DHT22;45837;51.076;3.578;2022-08-04T14:27:53;26.50;57.60
59977;DHT22;45837;51.076;3.578;2022-08-04T14:30:33;26.60;57.60
59977;DHT22;45837;51.076;3.578;2022-08-04T14:33:11;26.50;57.20
59977;DHT22;45837;51.076;3.578;2022-08-04T14:35:38;26.50;57.30
59977;DHT22;45837;51.076;3.578;2022-08-04T14:38:06;26.80;57.30
59977;DHT22;45837;51.076;3.578;2022-08-04T14:40:38;26.60;57.30
59977;DHT22;45837;51.076;3.578;2022-08-04T14:43:05;26.50;57.10
59977;DHT22;45837;51.076;3.578;2022-08-04T14:46:03;26.50;56.60
59977;DHT22;45837;51.076;3.578;2022-08-04T14:48:29;26.60;56.60
59977;DHT22;45837;51.076;3.578;2022-08-04T14:50:56;26.50;56.70
59977;DHT22;45837;51.076;3.578;2022-08-04T14:53:24;26.50;56.40
59977;DHT22;45837;51.076;3.578;2022-08-04T14:55:58;26.50;56.20
59977;DHT22;45837;51.076;3.578;2022-08-04T14:58:28;26.50;55.90
59977;DHT22;45837;51.076;3.578;2022-08-04T15:00:57;26.60;56.20
59977;DHT22;45837;51.076;3.578;2022-08-04T15:03:24;26.50;56.00
59977;DHT22;45837;51.076;3.578;2022-08-04T15:05:51;26.60;55.70
59977;DHT22;45837;51.076;3.578;2022-08-04T15:08:17;26.50;55.60
59977;DHT22;45837;51.076;3.578;2022-08-04T15:10:44;26.60;55.40
59977;DHT22;45837;51.076;3.578;2022-08-04T15:13:10;26.60;55.20
59977;DHT22;45837;51.076;3.578;2022-08-04T15:15:42;26.60;55.40
59977;DHT22;45837;51.076;3.578;2022-08-04T15:18:11;26.60;55.20
59977;DHT22;45837;51.076;3.578;2022-08-04T15:20:38;26.60;55.20
59977;DHT22;45837;51.076;3.578;2022-08-04T15:23:05;26.60;55.00
59977;DHT22;45837;51.076;3.578;2022-08-04T15:25:45;26.60;55.60
59977;DHT22;45837;51.076;3.578;2022-08-04T15:28:17;26.60;55.40
59977;DHT22;45837;51.076;3.578;2022-08-04T15:30:45;26.70;55.20
59977;DHT22;45837;51.076;3.578;2022-08-04T15:33:14;26.60;54.90
59977;DHT22;45837;51.076;3.578;2022-08-04T15:35:46;26.60;55.10
59977;DHT22;45837;51.076;3.578;2022-08-04T15:38:31;26.60;55.00
59977;DHT22;45837;51.076;3.578;2022-08-04T15:41:09;26.40;55.00
59977;DHT22;45837;51.076;3.578;2022-08-04T15:46:07;26.60;54.80
59977;DHT22;45837;51.076;3.578;2022-08-04T15:48:34;26.60;54.90
59977;DHT22;45837;51.076;3.578;2022-08-04T15:51:10;26.70;54.70
59977;DHT22;45837;51.076;3.578;2022-08-04T15:58:57;26.40;53.90
59977;DHT22;45837;51.076;3.578;2022-08-04T16:01:23;26.70;54.00
59977;DHT22;45837;51.076;3.578;2022-08-04T16:03:53;26.70;53.90
59977;DHT22;45837;51.076;3.578;2022-08-04T16:16:33;26.80;56.80
59977;DHT22;45837;51.076;3.578;2022-08-04T16:19:53;26.60;56.60
59977;DHT22;45837;51.076;3.578;2022-08-04T16:22:38;26.80;55.80
59977;DHT22;45837;51.076;3.578;2022-08-04T16:25:06;26.80;55.50
59977;DHT22;45837;51.076;3.578;2022-08-04T16:27:40;26.80;55.30
59977;DHT22;45837;51.076;3.578;2022-08-04T16:30:07;26.80;55.10
59977;DHT22;45837;51.076;3.578;2022-08-04T16:32:45;26.80;54.90
59977;DHT22;45837;51.076;3.578;2022-08-04T16:35:24;26.80;55.00
59977;DHT22;45837;51.076;3.578;2022-08-04T16:38:09;26.80;54.70
59977;DHT22;45837;51.076;3.578;2022-08-04T16:40:37;26.80;54.60
59977;DHT22;45837;51.076;3.578;2022-08-04T16:43:10;26.90;54.40
59977;DHT22;45837;51.076;3.578;2022-08-04T16:45:41;26.80;54.50
59977;DHT22;45837;51.076;3.578;2022-08-04T16:48:09;26.90;54.70
59977;DHT22;45837;51.076;3.578;2022-08-04T16:51:26;26.90;54.20
59977;DHT22;45837;51.076;3.578;2022-08-04T16:53:45;26.90;54.00
59977;DHT22;45837;51.076;3.578;2022-08-04T16:56:14;26.90;54.20
59977;DHT22;45837;51.076;3.578;2022-08-04T16:58:43;26.90;54.10
59977;DHT22;45837;51.076;3.578;2022-08-04T17:01:14;26.80;53.20
59977;DHT22;45837;51.076;3.578;2022-08-04T17:03:51;26.90;53.60
59977;DHT22;45837;51.076;3.578;2022-08-04T17:06:17;26.90;53.00
59977;DHT22;45837;51.076;3.578;2022-08-04T17:08:44;26.90;52.90
59977;DHT22;45837;51.076;3.578;2022-08-04T17:11:11;26.90;52.90
59977;DHT22;45837;51.076;3.578;2022-08-04T17:13:40;27.30;53.20
59977;DHT22;45837;51.076;3.578;2022-08-04T17:16:10;26.90;53.20
59977;DHT22;45837;51.076;3.578;2022-08-04T17:18:38;26.90;52.70
59977;DHT22;45837;51.076;3.578;2022-08-04T17:21:10;26.90;52.80
59977;DHT22;45837;51.076;3.578;2022-08-04T17:23:39;26.90;52.20
59977;DHT22;45837;51.076;3.578;2022-08-04T17:26:12;26.90;51.90
59977;DHT22;45837;51.076;3.578;2022-08-04T17:28:40;26.90;51.70
59977;DHT22;45837;51.076;3.578;2022-08-04T17:31:08;26.90;51.80
59977;DHT22;45837;51.076;3.578;2022-08-04T17:33:37;26.80;51.70
59977;DHT22;45837;51.076;3.578;2022-08-04T17:36:04;26.80;51.20
59977;DHT22;45837;51.076;3.578;2022-08-04T17:41:05;26.80;51.30
59977;DHT22;45837;51.076;3.578;2022-08-04T17:43:46;26.80;50.90
59977;DHT22;45837;51.076;3.578;2022-08-04T17:46:44;26.80;51.10
59977;DHT22;45837;51.076;3.578;2022-08-04T17:54:28;26.80;51.10
59977;DHT22;45837;51.076;3.578;2022-08-04T17:56:56;26.80;51.00
59977;DHT22;45837;51.076;3.578;2022-08-04T17:59:25;26.70;51.10
59977;DHT22;45837;51.076;3.578;2022-08-04T18:01:52;26.80;50.80
59977;DHT22;45837;51.076;3.578;2022-08-04T18:07:20;27.20;51.60
59977;DHT22;45837;51.076;3.578;2022-08-04T18:12:29;26.80;51.80
59977;DHT22;45837;51.076;3.578;2022-08-04T18:14:58;26.70;50.70
59977;DHT22;45837;51.076;3.578;2022-08-04T18:17:41;26.70;50.70
59977;DHT22;45837;51.076;3.578;2022-08-04T18:20:10;26.80;50.10
59977;DHT22;45837;51.076;3.578;2022-08-04T18:22:38;26.70;50.20
59977;DHT22;45837;51.076;3.578;2022-08-04T18:25:08;26.70;50.00
59977;DHT22;45837;51.076;3.578;2022-08-04T18:27:34;26.70;50.10
59977;DHT22;45837;51.076;3.578;2022-08-04T18:30:10;26.60;49.90
59977;DHT22;45837;51.076;3.578;2022-08-04T18:32:36;26.70;50.20
59977;DHT22;45837;51.076;3.578;2022-08-04T18:35:02;26.60;50.50
59977;DHT22;45837;51.076;3.578;2022-08-04T18:37:29;26.70;50.40
59977;DHT22;45837;51.076;3.578;2022-08-04T18:39:55;26.70;50.10
59977;DHT22;45837;51.076;3.578;2022-08-04T18:42:21;26.60;50.00
59977;DHT22;45837;51.076;3.578;2022-08-04T18:44:46;26.70;49.90
59977;DHT22;45837;51.076;3.578;2022-08-04T18:47:14;26.60;50.00
59977;DHT22;45837;51.076;3.578;2022-08-04T18:49:41;26.60;49.90
59977;DHT22;45837;51.076;3.578;2022-08-04T18:52:07;26.60;49.60
59977;DHT22;45837;51.076;3.578;2022-08-04T18:54:32;26.60;49.90
59977;DHT22;45837;51.076;3.578;2022-08-04T18:56:58;26.60;49.50
59977;DHT22;45837;51.076;3.578;2022-08-04T18:59:24;26.60;49.80
59977;DHT22;45837;51.076;3.578;2022-08-04T19:01:50;26.70;49.30
59977;DHT22;45837;51.076;3.578;2022-08-04T19:04:16;26.60;49.50
59977;DHT22;45837;51.076;3.578;2022-08-04T19:06:42;26.60;49.30
59977;DHT22;45837;51.076;3.578;2022-08-04T19:09:08;26.70;49.60
59977;DHT22;45837;51.076;3.578;2022-08-04T19:11:35;26.70;49.30
59977;DHT22;45837;51.076;3.578;2022-08-04T19:14:02;26.70;49.50
59977;DHT22;45837;51.076;3.578;2022-08-04T19:16:29;26.60;48.90
59977;DHT22;45837;51.076;3.578;2022-08-04T19:18:56;26.70;48.90
59977;DHT22;45837;51.076;3.578;2022-08-04T19:21:23;26.60;49.00
59977;DHT22;45837;51.076;3.578;2022-08-04T19:23:49;26.70;49.10
59977;DHT22;45837;51.076;3.578;2022-08-04T19:26:15;26.70;49.20
59977;DHT22;45837;51.076;3.578;2022-08-04T19:28:41;26.70;49.10
59977;DHT22;45837;51.076;3.578;2022-08-04T19:31:07;26.70;49.20
59977;DHT22;45837;51.076;3.578;2022-08-04T19:33:35;26.60;49.00
59977;DHT22;45837;51.076;3.578;2022-08-04T19:36:02;26.60;48.80
59977;DHT22;45837;51.076;3.578;2022-08-04T19:38:28;26.60;48.90
59977;DHT22;45837;51.076;3.578;2022-08-04T19:40:54;26.60;49.00
59977;DHT22;45837;51.076;3.578;2022-08-04T19:43:20;26.60;48.90
59977;DHT22;45837;51.076;3.578;2022-08-04T19:45:46;26.60;48.10
59977;DHT22;45837;51.076;3.578;2022-08-04T19:48:12;26.60;48.10
59977;DHT22;45837;51.076;3.578;2022-08-04T19:50:39;26.60;48.00
59977;DHT22;45837;51.076;3.578;2022-08-04T19:53:05;26.60;48.20
59977;DHT22;45837;51.076;3.578;2022-08-04T19:55:31;26.60;48.40
59977;DHT22;45837;51.076;3.578;2022-08-04T19:58:06;26.50;48.50
59977;DHT22;45837;51.076;3.578;2022-08-04T20:00:32;26.50;48.50
59977;DHT22;45837;51.076;3.578;2022-08-04T20:02:58;26.40;48.50